sensor_id;sensor_type;location;lat;lon;timestamp;temperature;humidity
25512;DHT22;13414;44.534;18.700;2023-07-31T00:00:51;19.80;99.90
25512;DHT22;13414;44.534;18.700;2023-07-31T00:03:18;19.80;99.90
25512;DHT22;13414;44.534;18.700;2023-07-31T00:05:45;19.90;99.90
25512;DHT22;13414;44.534;18.700;2023-07-31T00:08:13;19.90;99.90
25512;DHT22;13414;44.534;18.700;2023-07-31T00:10:40;19.80;99.90
25512;DHT22;13414;44.534;18.700;2023-07-31T00:13:07;19.80;99.90
25512;DHT22;13414;44.534;18.700;2023-07-31T00:15:34;19.70;99.90
25512;DHT22;13414;44.534;18.700;2023-07-31T00:18:03;19.80;99.90
25512;DHT22;13414;44.534;18.700;2023-07-31T00:20:30;19.80;99.90
25512;DHT22;13414;44.534;18.700;2023-07-31T00:22:58;19.80;99.90
25512;DHT22;13414;44.534;18.700;2023-07-31T00:25:25;19.90;99.90
25512;DHT22;13414;44.534;18.700;2023-07-31T00:27:52;19.80;99.90
25512;DHT22;13414;44.534;18.700;2023-07-31T00:30:20;19.80;99.90
25512;DHT22;13414;44.534;18.700;2023-07-31T00:32:48;19.60;99.90
25512;DHT22;13414;44.534;18.700;2023-07-31T00:35:17;19.60;99.90
25512;DHT22;13414;44.534;18.700;2023-07-31T00:37:44;19.50;99.90
25512;DHT22;13414;44.534;18.700;2023-07-31T00:40:11;19.40;99.90
25512;DHT22;13414;44.534;18.700;2023-07-31T00:42:39;19.40;99.90
25512;DHT22;13414;44.534;18.700;2023-07-31T00:45:08;19.40;99.90
25512;DHT22;13414;44.534;18.700;2023-07-31T00:47:35;19.40;99.90
25512;DHT22;13414;44.534;18.700;2023-07-31T00:50:03;19.50;99.90
25512;DHT22;13414;44.534;18.700;2023-07-31T00:52:33;19.50;99.90
25512;DHT22;13414;44.534;18.700;2023-07-31T00:55:01;19.40;99.90
25512;DHT22;13414;44.534;18.700;2023-07-31T00:57:31;19.40;99.90
25512;DHT22;13414;44.534;18.700;2023-07-31T00:59:59;19.50;99.90
25512;DHT22;13414;44.534;18.700;2023-07-31T01:02:26;19.50;99.90
25512;DHT22;13414;44.534;18.700;2023-07-31T01:04:53;19.50;99.90
25512;DHT22;13414;44.534;18.700;2023-07-31T01:07:27;19.40;99.90
25512;DHT22;13414;44.534;18.700;2023-07-31T01:10:02;19.20;99.90
25512;DHT22;13414;44.534;18.700;2023-07-31T01:12:31;19.10;99.90
25512;DHT22;13414;44.534;18.700;2023-07-31T01:15:03;19.00;99.90
25512;DHT22;13414;44.534;18.700;2023-07-31T01:17:30;18.90;99.90
25512;DHT22;13414;44.534;18.700;2023-07-31T01:20:02;18.80;99.90
25512;DHT22;13414;44.534;18.700;2023-07-31T01:22:46;18.80;99.90
25512;DHT22;13414;44.534;18.700;2023-07-31T01:25:19;18.80;99.90
25512;DHT22;13414;44.534;18.700;2023-07-31T01:27:59;18.80;99.90
25512;DHT22;13414;44.534;18.700;2023-07-31T01:30:29;18.80;99.90
25512;DHT22;13414;44.534;18.700;2023-07-31T01:33:01;18.80;99.90
25512;DHT22;13414;44.534;18.700;2023-07-31T01:35:33;18.80;99.90
25512;DHT22;13414;44.534;18.700;2023-07-31T01:38:00;18.80;99.90
25512;DHT22;13414;44.534;18.700;2023-07-31T01:40:28;18.80;99.90
25512;DHT22;13414;44.534;18.700;2023-07-31T01:42:57;18.80;99.90
25512;DHT22;13414;44.534;18.700;2023-07-31T01:45:24;18.70;99.90
25512;DHT22;13414;44.534;18.700;2023-07-31T01:47:52;18.70;99.90
25512;DHT22;13414;44.534;18.700;2023-07-31T01:50:20;18.70;99.90
25512;DHT22;13414;44.534;18.700;2023-07-31T01:52:47;18.80;99.90
25512;DHT22;13414;44.534;18.700;2023-07-31T01:55:15;18.80;99.90
25512;DHT22;13414;44.534;18.700;2023-07-31T01:57:43;18.80;99.90
25512;DHT22;13414;44.534;18.700;2023-07-31T02:00:12;18.80;99.90
25512;DHT22;13414;44.534;18.700;2023-07-31T02:02:40;18.80;99.90
25512;DHT22;13414;44.534;18.700;2023-07-31T02:05:07;18.90;99.90
25512;DHT22;13414;44.534;18.700;2023-07-31T02:07:35;18.90;99.90
25512;DHT22;13414;44.534;18.700;2023-07-31T02:10:03;18.90;99.90
25512;DHT22;13414;44.534;18.700;2023-07-31T02:12:30;19.00;99.90
25512;DHT22;13414;44.534;18.700;2023-07-31T02:15:00;19.00;99.90
25512;DHT22;13414;44.534;18.700;2023-07-31T02:17:29;18.90;99.90
25512;DHT22;13414;44.534;18.700;2023-07-31T02:19:57;18.90;99.90
25512;DHT22;13414;44.534;18.700;2023-07-31T02:22:24;18.80;99.90
25512;DHT22;13414;44.534;18.700;2023-07-31T02:24:52;18.80;99.90
25512;DHT22;13414;44.534;18.700;2023-07-31T02:27:22;18.80;99.90
25512;DHT22;13414;44.534;18.700;2023-07-31T02:29:53;18.90;99.90
25512;DHT22;13414;44.534;18.700;2023-07-31T02:32:21;18.90;99.90
25512;DHT22;13414;44.534;18.700;2023-07-31T02:34:50;19.00;99.90
25512;DHT22;13414;44.534;18.700;2023-07-31T02:37:17;19.10;99.90
25512;DHT22;13414;44.534;18.700;2023-07-31T02:39:46;19.20;99.90
25512;DHT22;13414;44.534;18.700;2023-07-31T02:42:13;19.20;99.90
25512;DHT22;13414;44.534;18.700;2023-07-31T02:44:41;19.20;99.90
25512;DHT22;13414;44.534;18.700;2023-07-31T02:47:09;19.10;99.90
25512;DHT22;13414;44.534;18.700;2023-07-31T02:49:37;19.10;99.90
25512;DHT22;13414;44.534;18.700;2023-07-31T02:52:07;19.10;99.90
25512;DHT22;13414;44.534;18.700;2023-07-31T02:54:34;19.20;99.90
25512;DHT22;13414;44.534;18.700;2023-07-31T02:57:02;19.20;99.90
25512;DHT22;13414;44.534;18.700;2023-07-31T02:59:29;19.00;99.90
25512;DHT22;13414;44.534;18.700;2023-07-31T03:01:57;19.00;99.90
25512;DHT22;13414;44.534;18.700;2023-07-31T03:04:25;18.90;99.90
25512;DHT22;13414;44.534;18.700;2023-07-31T03:06:53;18.80;99.90
25512;DHT22;13414;44.534;18.700;2023-07-31T03:09:22;18.80;99.90
25512;DHT22;13414;44.534;18.700;2023-07-31T03:11:49;18.80;99.90
25512;DHT22;13414;44.534;18.700;2023-07-31T03:14:16;18.70;99.90
25512;DHT22;13414;44.534;18.700;2023-07-31T03:16:44;18.70;99.90
25512;DHT22;13414;44.534;18.700;2023-07-31T03:19:11;18.70;99.90
25512;DHT22;13414;44.534;18.700;2023-07-31T03:21:39;18.80;99.90
25512;DHT22;13414;44.534;18.700;2023-07-31T03:24:06;18.70;99.90
25512;DHT22;13414;44.534;18.700;2023-07-31T03:26:35;18.70;99.90
25512;DHT22;13414;44.534;18.700;2023-07-31T03:29:02;18.70;99.90
25512;DHT22;13414;44.534;18.700;2023-07-31T03:31:30;18.80;99.90
25512;DHT22;13414;44.534;18.700;2023-07-31T03:33:58;18.90;99.90
25512;DHT22;13414;44.534;18.700;2023-07-31T03:36:26;19.00;99.90
25512;DHT22;13414;44.534;18.700;2023-07-31T03:38:54;19.00;99.90
25512;DHT22;13414;44.534;18.700;2023-07-31T03:41:22;19.10;99.90
25512;DHT22;13414;44.534;18.700;2023-07-31T03:43:51;19.20;99.90
25512;DHT22;13414;44.534;18.700;2023-07-31T03:46:19;19.10;99.90
25512;DHT22;13414;44.534;18.700;2023-07-31T03:48:48;19.00;99.90
25512;DHT22;13414;44.534;18.700;2023-07-31T03:51:16;18.90;99.90
25512;DHT22;13414;44.534;18.700;2023-07-31T03:53:44;18.90;99.90
25512;DHT22;13414;44.534;18.700;2023-07-31T03:56:11;19.00;99.90
25512;DHT22;13414;44.534;18.700;2023-07-31T03:58:39;19.00;99.90
25512;DHT22;13414;44.534;18.700;2023-07-31T04:01:07;19.00;99.90
25512;DHT22;13414;44.534;18.700;2023-07-31T04:03:35;19.00;99.90
25512;DHT22;13414;44.534;18.700;2023-07-31T04:06:02;19.10;99.90
25512;DHT22;13414;44.534;18.700;2023-07-31T04:08:30;19.10;99.90
25512;DHT22;13414;44.534;18.700;2023-07-31T04:10:57;19.20;99.90
25512;DHT22;13414;44.534;18.700;2023-07-31T04:13:25;19.30;99.90
25512;DHT22;13414;44.534;18.700;2023-07-31T04:15:54;19.30;99.90
25512;DHT22;13414;44.534;18.700;2023-07-31T04:18:25;19.40;99.90
25512;DHT22;13414;44.534;18.700;2023-07-31T04:20:52;19.40;99.90
25512;DHT22;13414;44.534;18.700;2023-07-31T04:23:20;19.40;99.90
25512;DHT22;13414;44.534;18.700;2023-07-31T04:25:48;19.50;99.90
25512;DHT22;13414;44.534;18.700;2023-07-31T04:28:15;19.50;99.90
25512;DHT22;13414;44.534;18.700;2023-07-31T04:30:42;19.50;99.90
25512;DHT22;13414;44.534;18.700;2023-07-31T04:33:10;19.50;99.90
25512;DHT22;13414;44.534;18.700;2023-07-31T04:35:39;19.50;99.90
25512;DHT22;13414;44.534;18.700;2023-07-31T04:38:07;19.60;99.90
25512;DHT22;13414;44.534;18.700;2023-07-31T04:40:34;19.70;99.90
25512;DHT22;13414;44.534;18.700;2023-07-31T04:43:02;19.90;99.90
25512;DHT22;13414;44.534;18.700;2023-07-31T04:45:29;20.00;99.90
25512;DHT22;13414;44.534;18.700;2023-07-31T04:47:56;20.30;99.90
25512;DHT22;13414;44.534;18.700;2023-07-31T04:50:24;20.40;99.90
25512;DHT22;13414;44.534;18.700;2023-07-31T04:52:53;20.60;99.90
25512;DHT22;13414;44.534;18.700;2023-07-31T04:55:20;20.60;99.90
25512;DHT22;13414;44.534;18.700;2023-07-31T04:57:48;20.70;99.90
25512;DHT22;13414;44.534;18.700;2023-07-31T05:00:16;20.70;99.90
25512;DHT22;13414;44.534;18.700;2023-07-31T05:02:43;20.70;99.90
25512;DHT22;13414;44.534;18.700;2023-07-31T05:05:11;20.80;99.90
25512;DHT22;13414;44.534;18.700;2023-07-31T05:07:38;21.00;99.90
25512;DHT22;13414;44.534;18.700;2023-07-31T05:10:08;21.10;99.90
25512;DHT22;13414;44.534;18.700;2023-07-31T05:12:35;21.20;99.90
25512;DHT22;13414;44.534;18.700;2023-07-31T05:15:03;21.30;99.90
25512;DHT22;13414;44.534;18.700;2023-07-31T05:17:31;21.30;99.90
25512;DHT22;13414;44.534;18.700;2023-07-31T05:19:58;21.30;99.90
25512;DHT22;13414;44.534;18.700;2023-07-31T05:22:26;21.20;99.90
25512;DHT22;13414;44.534;18.700;2023-07-31T05:24:53;21.10;99.90
25512;DHT22;13414;44.534;18.700;2023-07-31T05:27:22;21.10;99.90
25512;DHT22;13414;44.534;18.700;2023-07-31T05:29:50;21.20;99.90
25512;DHT22;13414;44.534;18.700;2023-07-31T05:32:17;21.40;99.90
25512;DHT22;13414;44.534;18.700;2023-07-31T05:34:45;21.50;99.90
25512;DHT22;13414;44.534;18.700;2023-07-31T05:37:12;21.70;99.90
25512;DHT22;13414;44.534;18.700;2023-07-31T05:39:39;21.80;99.90
25512;DHT22;13414;44.534;18.700;2023-07-31T05:42:07;22.00;99.90
25512;DHT22;13414;44.534;18.700;2023-07-31T05:44:36;22.20;99.90
25512;DHT22;13414;44.534;18.700;2023-07-31T05:47:04;22.40;99.90
25512;DHT22;13414;44.534;18.700;2023-07-31T05:49:31;22.70;99.90
25512;DHT22;13414;44.534;18.700;2023-07-31T05:51:59;22.80;99.90
25512;DHT22;13414;44.534;18.700;2023-07-31T05:54:27;22.80;99.90
25512;DHT22;13414;44.534;18.700;2023-07-31T05:56:54;22.70;99.90
25512;DHT22;13414;44.534;18.700;2023-07-31T05:59:21;22.90;99.90
25512;DHT22;13414;44.534;18.700;2023-07-31T06:01:50;22.90;99.90
25512;DHT22;13414;44.534;18.700;2023-07-31T06:04:18;22.90;99.90
25512;DHT22;13414;44.534;18.700;2023-07-31T06:06:45;22.90;99.90
25512;DHT22;13414;44.534;18.700;2023-07-31T06:09:13;23.10;99.90
25512;DHT22;13414;44.534;18.700;2023-07-31T06:11:41;23.30;99.90
25512;DHT22;13414;44.534;18.700;2023-07-31T06:14:10;23.30;99.90
25512;DHT22;13414;44.534;18.700;2023-07-31T06:16:37;23.40;99.90
25512;DHT22;13414;44.534;18.700;2023-07-31T06:19:09;23.70;99.90
25512;DHT22;13414;44.534;18.700;2023-07-31T06:21:37;24.20;99.90
25512;DHT22;13414;44.534;18.700;2023-07-31T06:24:05;24.60;4.90
25512;DHT22;13414;44.534;18.700;2023-07-31T06:26:32;24.90;99.90
25512;DHT22;13414;44.534;18.700;2023-07-31T06:29:00;25.00;1.00
25512;DHT22;13414;44.534;18.700;2023-07-31T06:31:28;24.60;1.00
25512;DHT22;13414;44.534;18.700;2023-07-31T06:33:55;24.10;1.00
25512;DHT22;13414;44.534;18.700;2023-07-31T06:36:27;23.90;99.90
25512;DHT22;13414;44.534;18.700;2023-07-31T06:38:55;24.10;99.90
25512;DHT22;13414;44.534;18.700;2023-07-31T06:41:22;24.40;99.90
25512;DHT22;13414;44.534;18.700;2023-07-31T06:43:49;24.60;1.00
25512;DHT22;13414;44.534;18.700;2023-07-31T06:46:17;25.20;99.90
25512;DHT22;13414;44.534;18.700;2023-07-31T06:48:45;25.90;99.90
25512;DHT22;13414;44.534;18.700;2023-07-31T06:51:12;26.70;99.90
25512;DHT22;13414;44.534;18.700;2023-07-31T06:53:41;27.10;99.90
25512;DHT22;13414;44.534;18.700;2023-07-31T06:56:11;27.10;99.90
25512;DHT22;13414;44.534;18.700;2023-07-31T06:58:38;26.60;99.90
25512;DHT22;13414;44.534;18.700;2023-07-31T07:01:06;26.50;99.90
25512;DHT22;13414;44.534;18.700;2023-07-31T07:03:33;26.70;99.90
25512;DHT22;13414;44.534;18.700;2023-07-31T07:06:01;26.70;99.90
25512;DHT22;13414;44.534;18.700;2023-07-31T07:08:28;26.90;99.90
25512;DHT22;13414;44.534;18.700;2023-07-31T07:10:57;27.00;99.90
25512;DHT22;13414;44.534;18.700;2023-07-31T07:13:25;27.20;99.90
25512;DHT22;13414;44.534;18.700;2023-07-31T07:15:52;27.30;99.90
25512;DHT22;13414;44.534;18.700;2023-07-31T07:18:20;27.30;99.90
25512;DHT22;13414;44.534;18.700;2023-07-31T07:20:50;27.30;99.90
25512;DHT22;13414;44.534;18.700;2023-07-31T07:23:17;27.10;99.90
25512;DHT22;13414;44.534;18.700;2023-07-31T07:25:45;27.20;99.90
25512;DHT22;13414;44.534;18.700;2023-07-31T07:28:14;27.10;99.90
25512;DHT22;13414;44.534;18.700;2023-07-31T07:30:42;27.10;99.90
25512;DHT22;13414;44.534;18.700;2023-07-31T07:33:10;27.00;99.90
25512;DHT22;13414;44.534;18.700;2023-07-31T07:35:38;26.80;99.90
25512;DHT22;13414;44.534;18.700;2023-07-31T07:38:05;27.00;99.90
25512;DHT22;13414;44.534;18.700;2023-07-31T07:40:33;27.00;99.90
25512;DHT22;13414;44.534;18.700;2023-07-31T07:43:05;26.90;99.90
25512;DHT22;13414;44.534;18.700;2023-07-31T07:45:34;26.70;99.90
25512;DHT22;13414;44.534;18.700;2023-07-31T07:48:01;26.60;99.90
25512;DHT22;13414;44.534;18.700;2023-07-31T07:50:29;26.40;99.90
25512;DHT22;13414;44.534;18.700;2023-07-31T07:52:57;26.20;99.90
25512;DHT22;13414;44.534;18.700;2023-07-31T07:55:24;26.00;99.90
25512;DHT22;13414;44.534;18.700;2023-07-31T07:57:52;25.90;99.90
25512;DHT22;13414;44.534;18.700;2023-07-31T08:00:19;26.00;99.90
25512;DHT22;13414;44.534;18.700;2023-07-31T08:02:48;26.20;99.90
25512;DHT22;13414;44.534;18.700;2023-07-31T08:05:15;26.30;99.90
25512;DHT22;13414;44.534;18.700;2023-07-31T08:07:44;26.20;99.90
25512;DHT22;13414;44.534;18.700;2023-07-31T08:10:11;25.90;99.90
25512;DHT22;13414;44.534;18.700;2023-07-31T08:12:38;25.90;99.90
25512;DHT22;13414;44.534;18.700;2023-07-31T08:15:07;25.90;99.90
25512;DHT22;13414;44.534;18.700;2023-07-31T08:17:34;26.00;99.90
25512;DHT22;13414;44.534;18.700;2023-07-31T08:20:04;26.20;99.90
25512;DHT22;13414;44.534;18.700;2023-07-31T08:22:31;26.40;99.90
25512;DHT22;13414;44.534;18.700;2023-07-31T08:24:59;26.70;99.90
25512;DHT22;13414;44.534;18.700;2023-07-31T08:27:26;26.70;99.90
25512;DHT22;13414;44.534;18.700;2023-07-31T08:29:54;26.60;99.90
25512;DHT22;13414;44.534;18.700;2023-07-31T08:32:21;26.50;99.90
25512;DHT22;13414;44.534;18.700;2023-07-31T08:34:49;26.00;99.90
25512;DHT22;13414;44.534;18.700;2023-07-31T08:37:18;25.50;99.90
25512;DHT22;13414;44.534;18.700;2023-07-31T08:39:45;25.20;99.90
25512;DHT22;13414;44.534;18.700;2023-07-31T08:42:12;25.30;99.90
25512;DHT22;13414;44.534;18.700;2023-07-31T08:44:40;25.40;99.90
25512;DHT22;13414;44.534;18.700;2023-07-31T08:47:08;25.40;99.90
25512;DHT22;13414;44.534;18.700;2023-07-31T08:49:37;25.90;99.90
25512;DHT22;13414;44.534;18.700;2023-07-31T08:52:06;26.40;99.90
25512;DHT22;13414;44.534;18.700;2023-07-31T08:54:35;26.20;99.90
25512;DHT22;13414;44.534;18.700;2023-07-31T08:57:05;26.10;99.90
25512;DHT22;13414;44.534;18.700;2023-07-31T08:59:35;26.00;99.90
25512;DHT22;13414;44.534;18.700;2023-07-31T09:02:05;26.40;99.90
25512;DHT22;13414;44.534;18.700;2023-07-31T09:04:33;27.00;99.90
25512;DHT22;13414;44.534;18.700;2023-07-31T09:07:10;27.50;99.90
25512;DHT22;13414;44.534;18.700;2023-07-31T09:09:41;27.90;99.90
25512;DHT22;13414;44.534;18.700;2023-07-31T09:12:08;27.60;99.90
25512;DHT22;13414;44.534;18.700;2023-07-31T09:14:39;27.20;99.90
25512;DHT22;13414;44.534;18.700;2023-07-31T09:17:08;26.40;99.90
25512;DHT22;13414;44.534;18.700;2023-07-31T09:19:36;26.50;99.90
25512;DHT22;13414;44.534;18.700;2023-07-31T09:22:04;26.80;99.90
25512;DHT22;13414;44.534;18.700;2023-07-31T09:24:33;27.10;99.90
25512;DHT22;13414;44.534;18.700;2023-07-31T09:27:03;27.30;99.90
25512;DHT22;13414;44.534;18.700;2023-07-31T09:29:30;27.30;99.90
25512;DHT22;13414;44.534;18.700;2023-07-31T09:31:57;27.20;99.90
25512;DHT22;13414;44.534;18.700;2023-07-31T09:34:30;27.20;99.90
25512;DHT22;13414;44.534;18.700;2023-07-31T09:37:05;27.40;99.90
25512;DHT22;13414;44.534;18.700;2023-07-31T09:39:47;27.50;99.90
25512;DHT22;13414;44.534;18.700;2023-07-31T09:42:26;27.40;99.90
25512;DHT22;13414;44.534;18.700;2023-07-31T09:44:54;27.40;99.90
25512;DHT22;13414;44.534;18.700;2023-07-31T09:47:33;26.90;99.90
25512;DHT22;13414;44.534;18.700;2023-07-31T09:50:01;26.70;99.90
25512;DHT22;13414;44.534;18.700;2023-07-31T09:52:28;26.90;99.90
25512;DHT22;13414;44.534;18.700;2023-07-31T09:54:56;27.30;99.90
25512;DHT22;13414;44.534;18.700;2023-07-31T09:57:25;27.40;99.90
25512;DHT22;13414;44.534;18.700;2023-07-31T09:59:53;27.20;99.90
25512;DHT22;13414;44.534;18.700;2023-07-31T10:02:22;27.20;99.90
25512;DHT22;13414;44.534;18.700;2023-07-31T10:04:50;27.20;99.90
25512;DHT22;13414;44.534;18.700;2023-07-31T10:07:18;26.90;99.90
25512;DHT22;13414;44.534;18.700;2023-07-31T10:09:47;26.70;99.90
25512;DHT22;13414;44.534;18.700;2023-07-31T10:12:19;26.70;99.90
25512;DHT22;13414;44.534;18.700;2023-07-31T10:14:51;26.70;99.90
25512;DHT22;13414;44.534;18.700;2023-07-31T10:17:20;26.70;99.90
25512;DHT22;13414;44.534;18.700;2023-07-31T10:19:48;26.90;99.90
25512;DHT22;13414;44.534;18.700;2023-07-31T10:22:18;26.60;99.90
25512;DHT22;13414;44.534;18.700;2023-07-31T10:24:46;26.70;99.90
25512;DHT22;13414;44.534;18.700;2023-07-31T10:27:17;26.70;99.90
25512;DHT22;13414;44.534;18.700;2023-07-31T10:29:45;26.60;99.90
25512;DHT22;13414;44.534;18.700;2023-07-31T10:32:17;26.50;99.90
25512;DHT22;13414;44.534;18.700;2023-07-31T10:34:45;26.30;99.90
25512;DHT22;13414;44.534;18.700;2023-07-31T10:37:21;26.30;99.90
25512;DHT22;13414;44.534;18.700;2023-07-31T10:40:00;26.50;99.90
25512;DHT22;13414;44.534;18.700;2023-07-31T10:42:32;26.80;99.90
25512;DHT22;13414;44.534;18.700;2023-07-31T10:45:02;27.20;99.90
25512;DHT22;13414;44.534;18.700;2023-07-31T10:47:36;27.60;99.90
25512;DHT22;13414;44.534;18.700;2023-07-31T10:50:15;27.90;99.90
25512;DHT22;13414;44.534;18.700;2023-07-31T10:52:46;28.20;99.90
25512;DHT22;13414;44.534;18.700;2023-07-31T10:55:29;28.10;99.90
25512;DHT22;13414;44.534;18.700;2023-07-31T10:57:58;28.00;99.90
25512;DHT22;13414;44.534;18.700;2023-07-31T11:00:32;27.90;99.90
25512;DHT22;13414;44.534;18.700;2023-07-31T11:03:02;27.90;99.90
25512;DHT22;13414;44.534;18.700;2023-07-31T11:05:50;27.50;99.90
25512;DHT22;13414;44.534;18.700;2023-07-31T11:08:21;27.50;99.90
25512;DHT22;13414;44.534;18.700;2023-07-31T11:10:50;27.50;99.90
25512;DHT22;13414;44.534;18.700;2023-07-31T11:13:18;27.60;99.90
25512;DHT22;13414;44.534;18.700;2023-07-31T11:15:46;27.60;99.90
25512;DHT22;13414;44.534;18.700;2023-07-31T11:18:15;27.40;99.90
25512;DHT22;13414;44.534;18.700;2023-07-31T11:20:44;27.20;99.90
25512;DHT22;13414;44.534;18.700;2023-07-31T11:23:12;26.90;99.90
25512;DHT22;13414;44.534;18.700;2023-07-31T11:25:40;27.00;99.90
25512;DHT22;13414;44.534;18.700;2023-07-31T11:28:10;27.10;99.90
25512;DHT22;13414;44.534;18.700;2023-07-31T11:30:38;27.20;99.90
25512;DHT22;13414;44.534;18.700;2023-07-31T11:33:07;27.40;99.90
25512;DHT22;13414;44.534;18.700;2023-07-31T11:35:43;27.50;99.90
25512;DHT22;13414;44.534;18.700;2023-07-31T11:38:31;27.60;99.90
25512;DHT22;13414;44.534;18.700;2023-07-31T11:41:00;27.20;99.90
25512;DHT22;13414;44.534;18.700;2023-07-31T11:43:59;27.10;99.90
25512;DHT22;13414;44.534;18.700;2023-07-31T11:46:29;27.30;99.90
25512;DHT22;13414;44.534;18.700;2023-07-31T11:49:06;27.20;99.90
25512;DHT22;13414;44.534;18.700;2023-07-31T11:51:35;27.20;99.90
25512;DHT22;13414;44.534;18.700;2023-07-31T11:54:03;27.20;99.90
25512;DHT22;13414;44.534;18.700;2023-07-31T11:56:41;27.20;99.90
25512;DHT22;13414;44.534;18.700;2023-07-31T11:59:09;27.20;99.90
25512;DHT22;13414;44.534;18.700;2023-07-31T12:01:38;27.30;99.90
25512;DHT22;13414;44.534;18.700;2023-07-31T12:04:06;27.40;99.90
25512;DHT22;13414;44.534;18.700;2023-07-31T12:06:35;27.60;99.90
25512;DHT22;13414;44.534;18.700;2023-07-31T12:09:03;28.00;99.90
25512;DHT22;13414;44.534;18.700;2023-07-31T12:11:31;28.20;99.90
25512;DHT22;13414;44.534;18.700;2023-07-31T12:13:59;27.60;99.90
25512;DHT22;13414;44.534;18.700;2023-07-31T12:16:26;27.40;99.90
25512;DHT22;13414;44.534;18.700;2023-07-31T12:18:55;27.40;99.90
25512;DHT22;13414;44.534;18.700;2023-07-31T12:21:22;27.30;99.90
25512;DHT22;13414;44.534;18.700;2023-07-31T12:23:51;27.10;99.90
25512;DHT22;13414;44.534;18.700;2023-07-31T12:26:20;27.40;99.90
25512;DHT22;13414;44.534;18.700;2023-07-31T12:28:50;27.40;99.90
25512;DHT22;13414;44.534;18.700;2023-07-31T12:31:20;27.20;99.90
25512;DHT22;13414;44.534;18.700;2023-07-31T12:33:49;27.40;99.90
25512;DHT22;13414;44.534;18.700;2023-07-31T12:36:18;27.70;99.90
25512;DHT22;13414;44.534;18.700;2023-07-31T12:38:47;28.00;99.90
25512;DHT22;13414;44.534;18.700;2023-07-31T12:41:16;28.10;99.90
25512;DHT22;13414;44.534;18.700;2023-07-31T12:43:44;28.30;99.90
25512;DHT22;13414;44.534;18.700;2023-07-31T12:46:12;28.50;99.90
25512;DHT22;13414;44.534;18.700;2023-07-31T12:48:40;28.60;99.90
25512;DHT22;13414;44.534;18.700;2023-07-31T12:51:08;28.60;99.90
25512;DHT22;13414;44.534;18.700;2023-07-31T12:53:35;28.70;99.90
25512;DHT22;13414;44.534;18.700;2023-07-31T12:56:03;28.90;99.90
25512;DHT22;13414;44.534;18.700;2023-07-31T12:58:33;29.00;99.90
25512;DHT22;13414;44.534;18.700;2023-07-31T13:01:00;28.50;99.90
25512;DHT22;13414;44.534;18.700;2023-07-31T13:03:28;28.00;99.90
25512;DHT22;13414;44.534;18.700;2023-07-31T13:05:55;28.00;99.90
25512;DHT22;13414;44.534;18.700;2023-07-31T13:08:23;28.00;99.90
25512;DHT22;13414;44.534;18.700;2023-07-31T13:10:50;28.00;99.90
25512;DHT22;13414;44.534;18.700;2023-07-31T13:13:18;28.20;99.90
25512;DHT22;13414;44.534;18.700;2023-07-31T13:15:47;28.20;99.90
25512;DHT22;13414;44.534;18.700;2023-07-31T13:18:17;28.30;99.90
25512;DHT22;13414;44.534;18.700;2023-07-31T13:20:45;28.30;99.90
25512;DHT22;13414;44.534;18.700;2023-07-31T13:23:12;28.40;99.90
25512;DHT22;13414;44.534;18.700;2023-07-31T13:25:40;28.40;99.90
25512;DHT22;13414;44.534;18.700;2023-07-31T13:28:07;28.50;99.90
25512;DHT22;13414;44.534;18.700;2023-07-31T13:30:35;28.70;99.90
25512;DHT22;13414;44.534;18.700;2023-07-31T13:33:04;28.80;99.90
25512;DHT22;13414;44.534;18.700;2023-07-31T13:35:31;28.90;99.90
25512;DHT22;13414;44.534;18.700;2023-07-31T13:37:59;28.80;99.90
25512;DHT22;13414;44.534;18.700;2023-07-31T13:40:26;28.90;99.90
25512;DHT22;13414;44.534;18.700;2023-07-31T13:42:54;28.50;99.90
25512;DHT22;13414;44.534;18.700;2023-07-31T13:45:21;28.60;99.90
25512;DHT22;13414;44.534;18.700;2023-07-31T13:47:50;28.30;99.90
25512;DHT22;13414;44.534;18.700;2023-07-31T13:50:19;28.30;99.90
25512;DHT22;13414;44.534;18.700;2023-07-31T13:52:48;28.30;99.90
25512;DHT22;13414;44.534;18.700;2023-07-31T13:55:16;28.20;99.90
25512;DHT22;13414;44.534;18.700;2023-07-31T13:57:45;28.00;99.90
25512;DHT22;13414;44.534;18.700;2023-07-31T14:00:14;28.10;99.90
25512;DHT22;13414;44.534;18.700;2023-07-31T14:02:41;28.20;99.90
25512;DHT22;13414;44.534;18.700;2023-07-31T14:05:09;28.00;99.90
25512;DHT22;13414;44.534;18.700;2023-07-31T14:07:38;28.10;99.90
25512;DHT22;13414;44.534;18.700;2023-07-31T14:10:06;28.20;99.90
25512;DHT22;13414;44.534;18.700;2023-07-31T14:12:34;28.30;99.90
25512;DHT22;13414;44.534;18.700;2023-07-31T14:15:02;28.50;99.90
25512;DHT22;13414;44.534;18.700;2023-07-31T14:17:31;28.40;99.90
25512;DHT22;13414;44.534;18.700;2023-07-31T14:19:59;28.30;99.90
25512;DHT22;13414;44.534;18.700;2023-07-31T14:22:29;28.20;99.90
25512;DHT22;13414;44.534;18.700;2023-07-31T14:25:01;27.90;99.90
25512;DHT22;13414;44.534;18.700;2023-07-31T14:27:28;27.70;99.90
25512;DHT22;13414;44.534;18.700;2023-07-31T14:29:56;27.60;99.90
25512;DHT22;13414;44.534;18.700;2023-07-31T14:32:24;27.60;99.90
25512;DHT22;13414;44.534;18.700;2023-07-31T14:34:52;27.70;99.90
25512;DHT22;13414;44.534;18.700;2023-07-31T14:37:20;27.70;99.90
25512;DHT22;13414;44.534;18.700;2023-07-31T14:39:48;27.60;99.90
25512;DHT22;13414;44.534;18.700;2023-07-31T14:42:17;27.50;99.90
25512;DHT22;13414;44.534;18.700;2023-07-31T14:44:45;27.50;99.90
25512;DHT22;13414;44.534;18.700;2023-07-31T14:47:13;27.60;99.90
25512;DHT22;13414;44.534;18.700;2023-07-31T14:49:40;27.70;99.90
25512;DHT22;13414;44.534;18.700;2023-07-31T14:52:08;27.50;99.90
25512;DHT22;13414;44.534;18.700;2023-07-31T14:54:37;27.60;99.90
25512;DHT22;13414;44.534;18.700;2023-07-31T14:57:06;27.70;99.90
25512;DHT22;13414;44.534;18.700;2023-07-31T14:59:35;27.80;99.90
25512;DHT22;13414;44.534;18.700;2023-07-31T15:02:03;28.00;99.90
25512;DHT22;13414;44.534;18.700;2023-07-31T15:04:30;28.10;99.90
25512;DHT22;13414;44.534;18.700;2023-07-31T15:06:58;27.90;99.90
25512;DHT22;13414;44.534;18.700;2023-07-31T15:09:25;27.70;99.90
25512;DHT22;13414;44.534;18.700;2023-07-31T15:11:54;27.50;99.90
25512;DHT22;13414;44.534;18.700;2023-07-31T15:14:21;27.50;99.90
25512;DHT22;13414;44.534;18.700;2023-07-31T15:16:51;27.30;99.90
25512;DHT22;13414;44.534;18.700;2023-07-31T15:19:19;27.30;99.90
25512;DHT22;13414;44.534;18.700;2023-07-31T15:21:46;27.30;99.90
25512;DHT22;13414;44.534;18.700;2023-07-31T15:24:14;27.10;99.90